Data for 10/03/2008

Time Sea-Level Adjusted Pressure Absolute Pressure Temperature Relative Humidity Dew Point   
(mb) (inHg) (mb) (inHg) (C) (F) (%) (C) (F)
00:05 1012 29.88 841 24.83 18.4 65 28 -0.3 31.4
00:10 1012 29.88 841 24.83 18.2 64.7 29 -0.2 31.7
00:15 1012 29.88 841 24.83 17.8 64 30 -0.1 31.9
00:20 1012 29.88 841 24.83 17.6 63.6 29 -0.3 31.4
00:25 1012 29.88 841 24.83 17.7 63.9 30 -0.1 31.9
00:30 1012 29.88 841 24.83 17.7 63.9 29 -0.4 31.3
00:35 1012 29.88 841 24.83 17.7 63.9 30 0.3 32.5
00:40 1012 29.88 841 24.83 17.6 63.7 31 0.4 32.7
00:45 1012 29.88 841 24.83 17.5 63.5 31 0.4 32.8
00:50 1012 29.88 841 24.83 17.9 64.1 28 -0.5 31
00:55 1012 29.88 841 24.83 18.3 64.9 29 -0.1 31.9
01:00 1012 29.88 841 24.83 18.2 64.7 28 -0.3 31.5
01:05 1012 29.88 841 24.83 18.3 65 29 -0.1 31.9
01:10 1012 29.88 841 24.83 18.3 64.9 29 0 32
01:15 1012 29.88 841 24.83 18 64.4 30 0.2 32.4
01:20 1012 29.88 841 24.83 17.8 64 30 0.2 32.3
01:25 1012 29.88 841 24.83 17.7 63.9 30 0.1 32.1
01:30 1012 29.88 841 24.83 17.9 64.2 30 0.1 32.2
01:35 1012 29.88 841 24.83 17.8 64 30 0.2 32.3
01:40 1012 29.88 841 24.83 17.9 64.2 30 0.4 32.6
01:45 1012 29.88 841 24.83 17.8 64.1 30 0 32.1
01:50 1012 29.88 841 24.83 17.9 64.3 31 0.7 33.3
01:55 1012 29.88 841 24.83 17.7 63.9 30 0.3 32.5
02:00 1012 29.88 841 24.83 17.7 63.9 31 0.6 33.2
02:05 1012 29.88 841 24.83 17.6 63.7 32 1 33.8
02:10 1012 29.88 841 24.83 17.7 63.8 32 1.1 34
02:15 1012 29.88 841 24.83 17.5 63.6 31 0.2 32.4
02:20 1012 29.88 841 24.83 17.6 63.7 30 0 32
02:25 1012 29.88 841 24.83 17.9 64.2 30 0.2 32.4
02:30 1012 29.88 841 24.83 17.8 64.1 30 0.1 32.1
02:35 1012 29.88 841 24.83 18 64.4 30 0.2 32.4
02:40 1012 29.88 841 24.83 17.8 64.1 30 0.3 32.6
02:45 1012 29.88 841 24.83 17.8 64 30 0.3 32.5
02:50 1012 29.88 841 24.83 17.5 63.5 31 0.5 32.9
02:55 1012 29.88 841 24.83 17.3 63.1 32 0.4 32.6
03:00 1012 29.88 841 24.83 17.2 62.9 32 0.3 32.6
03:05 1012 29.88 841 24.83 17.3 63.1 32 0.4 32.7
03:10 1012 29.88 841 24.83 17.2 62.9 32 0.4 32.7
03:15 1012 29.88 841 24.83 17.1 62.8 32 0.5 32.9
03:20 1012 29.88 841 24.83 17.1 62.8 32 0.5 33
03:25 1012 29.88 841 24.83 17.1 62.8 31 0.2 32.3
03:30 1012 29.88 841 24.83 17.3 63.1 32 0.5 33
03:35 1012 29.88 841 24.83 17.1 62.8 32 0.3 32.6
03:40 1012 29.88 841 24.83 17.2 63 32 0.3 32.6
03:45 1012 29.88 841 24.83 17.4 63.2 32 0.5 32.9
03:50 1012 29.88 841 24.83 17.2 62.9 32 0.6 33.2
03:55 1012 29.88 841 24.83 17.1 62.8 32 0.3 32.5
04:00 1012 29.88 841 24.83 17.1 62.8 37 2.4 36.3
04:05 1012 29.88 841 24.83 17.1 62.8 32 0.4 32.7
04:10 1012 29.88 841 24.83 17.1 62.7 32 0.3 32.5
04:15 1012 29.88 841 24.83 17.2 62.9 37 2.6 36.7
04:20 1012 29.88 841 24.83 17.1 62.9 32 0.6 33
04:25 1012 29.88 841 24.83 16.9 62.3 34 1 33.8
04:30 1012 29.88 841 24.83 16.6 62 33 0.3 32.5
04:35 1012 29.88 841 24.83 16.7 62.1 38 2.4 36.2
04:40 1012 29.88 841 24.83 16.6 61.8 34 0.6 33.1
04:45 1012 29.88 841 24.83 16.5 61.7 36 1.3 34.3
04:50 1012 29.88 841 24.83 15.9 60.6 39 2 35.7
04:55 1012 29.88 841 24.83 15.8 60.5 35 0.6 33.1
05:00 1012 29.88 841 24.83 16.2 61.1 40 2.5 36.5
05:05 1012 29.88 841 24.83 16.5 61.8 35 1.1 33.9
05:10 1012 29.88 841 24.83 16.7 62.1 34 0.7 33.2
05:15 1012 29.88 841 24.83 16.4 61.4 39 2.3 36.2
05:20 1012 29.88 841 24.83 16.1 61 35 0.9 33.6
05:25 1012 29.88 841 24.83 16.1 61 35 0.9 33.7
05:30 1012 29.88 841 24.83 16.2 61.1 36 1 33.9
05:35 1012 29.88 841 24.83 16.1 61 36 1.1 34.1
05:40 1012 29.88 842 24.86 15.8 60.5 39 2.1 35.9
05:45 1012 29.88 842 24.86 15.6 60.2 37 0.9 33.7
05:50 1012 29.88 842 24.86 15.7 60.2 37 1.2 34.2
05:55 1012 29.88 842 24.86 15.8 60.4 34 0 32
06:00 1012 29.88 842 24.86 16.3 61.3 40 2.9 37.3
06:05 1013 29.91 842 24.86 15.2 59.3 44 3 37.4
06:10 1013 29.91 842 24.86 14.1 57.5 47 3 37.5
06:15 1013 29.91 842 24.86 13.5 56.2 48 2.9 37.1
06:20 1013 29.91 842 24.86 13.3 56 49 2.8 37.1
06:25 1013 29.91 842 24.86 13.1 55.6 49 2.6 36.8
06:30 1013 29.91 842 24.86 13.1 55.6 48 2.3 36.2
06:35 1013 29.91 842 24.86 13.3 55.9 47 2.4 36.3
06:40 1013 29.91 842 24.86 13.6 56.5 43 1.2 34.2
06:45 1013 29.91 842 24.86 14 57.2 42 1.5 34.7
06:50 1013 29.91 842 24.86 14 57.2 44 1.9 35.4
06:55 1013 29.91 842 24.86 14.1 57.3 43 1.7 35.1
07:00 1013 29.91 842 24.86 14.2 57.6 42 1.5 34.7
07:05 1013 29.91 842 24.86 14.5 58 41 1.5 34.7
07:10 1013 29.91 842 24.86 14.7 58.4 42 1.9 35.4
07:15 1013 29.91 842 24.86 14.6 58.4 42 2 35.7
07:20 1013 29.91 842 24.86 14.6 58.3 42 2 35.6
07:25 1013 29.91 842 24.86 14.7 58.4 43 2.2 35.9
07:30 1013 29.91 842 24.86 14.7 58.4 43 2.3 36.2
07:35 1013 29.91 842 24.86 14.5 58 43 2.2 36
07:40 1013 29.91 842 24.86 14.4 57.9 44 2.3 36.2
07:45 1013 29.91 842 24.86 14.4 57.8 44 2.3 36.1
07:50 1013 29.91 842 24.86 14.4 58 44 2.4 36.3
07:55 1013 29.91 842 24.86 14.5 58.1 44 2.5 36.6
08:00 1013 29.91 843 24.89 14.5 58 45 2.6 36.7
08:05 1013 29.91 843 24.89 14.5 58.1 45 2.6 36.8
08:10 1013 29.91 843 24.89 14.5 58 45 2.8 37
08:15 1013 29.91 843 24.89 14.6 58.3 45 2.9 37.2
08:20 1014 29.94 843 24.89 14.7 58.4 46 3.1 37.6
08:25 1014 29.94 843 24.89 14.7 58.5 46 3.2 37.7
08:30 1014 29.94 843 24.89 14.8 58.7 44 2.9 37.2
08:35 1013 29.91 843 24.89 15 58.9 45 3.3 37.9
08:40 1013 29.91 843 24.89 14.9 58.7 46 3.5 38.3
08:45 1013 29.91 843 24.89 14.7 58.5 46 3.4 38.1
08:50 1013 29.91 843 24.89 14.7 58.5 47 3.5 38.4
08:55 1014 29.94 843 24.89 14.7 58.4 47 3.6 38.4
09:00 1014 29.94 843 24.89 14.8 58.6 47 3.6 38.4
09:05 1014 29.94 843 24.89 15 59 47 4 39.2
09:10 1014 29.94 843 24.89 15.1 59.2 46 3.5 38.3
09:15 1014 29.94 843 24.89 15 59 46 3.7 38.7
09:20 1014 29.94 843 24.89 15.1 59.1 47 3.9 38.9
09:25 1014 29.94 843 24.89 15.3 59.5 47 4.1 39.4
09:30 1014 29.94 843 24.89 15.4 59.8 46 3.9 39
09:35 1014 29.94 843 24.89 15.6 60.2 45 4 39.2
09:40 1014 29.94 843 24.89 16 60.7 43 3.6 38.4
09:45 1014 29.94 843 24.89 15.9 60.7 45 4.2 39.6
09:50 1014 29.94 843 24.89 16.4 61.5 43 3.9 39
09:55 1014 29.94 843 24.89 16.9 62.4 42 3.9 39
10:00 1014 29.94 843 24.89 17.1 62.7 41 3.8 38.9
10:05 1014 29.94 843 24.89 17 62.5 41 3.9 38.9
10:10 1014 29.94 843 24.89 16.4 61.6 43 3.8 38.8
10:15 1014 29.94 843 24.89 16.2 61.1 43 3.8 38.8
10:20 1014 29.94 843 24.89 16.7 62.1 42 3.8 38.9
10:25 1014 29.94 843 24.89 17.3 63.2 40 3.8 38.9
10:30 1014 29.94 843 24.89 17.5 63.4 40 3.7 38.7
10:35 1014 29.94 843 24.89 17.9 64.1 38 3.6 38.5
10:40 1014 29.94 843 24.89 18.5 65.2 37 3.5 38.4
10:45 1014 29.94 843 24.89 17.9 64.2 38 3.6 38.5
10:50 1014 29.94 843 24.89 18 64.5 37 3.4 38.2
10:55 1014 29.94 843 24.89 18.2 64.7 38 3.6 38.5
11:00 1014 29.94 843 24.89 18 64.5 37 3.4 38.1
11:05 1014 29.94 843 24.89 18.6 65.4 36 3.4 38.2
11:10 1014 29.94 843 24.89 18.4 65.1 37 3.7 38.6
11:15 1014 29.94 843 24.89 18.2 64.8 36 3 37.3
11:20 1014 29.94 843 24.89 18.6 65.5 36 3.2 37.8
11:25 1014 29.94 843 24.89 18.7 65.6 37 3.9 39
11:30 1014 29.94 843 24.89 18.8 65.8 37 3.8 38.8
11:35 1014 29.94 843 24.89 18.3 65 38 4 39.1
11:40 1013 29.91 843 24.89 18.5 65.2 36 3.4 38.1
11:45 1013 29.91 843 24.89 18.6 65.5 35 2.9 37.1
11:50 1013 29.91 843 24.89 19.8 67.7 32 3 37.4
11:55 1013 29.91 843 24.89 20.5 68.8 31 3 37.4
12:00 1013 29.91 842 24.86 20.1 68.1 33 3.6 38.5
12:05 1013 29.91 842 24.86 20.5 68.9 31 2.8 37.1
12:10 1013 29.91 842 24.86 21.2 70.1 29 2.7 36.8
12:15 1013 29.91 842 24.86 21.3 70.4 29 2.9 37.2
12:20 1013 29.91 842 24.86 21.5 70.8 29 3.2 37.7
12:25 1013 29.91 842 24.86 21.8 71.2 29 3.1 37.5
12:30 1013 29.91 842 24.86 22.2 72 28 3.2 37.7
12:35 1013 29.91 842 24.86 21.3 70.4 31 3.7 38.7
12:40 1013 29.91 842 24.86 20.5 68.9 31 2.8 37.1
12:45 1013 29.91 842 24.86 21.2 70.2 30 3 37.4
12:50 1013 29.91 842 24.86 20.9 69.5 33 4.2 39.5
12:55 1013 29.91 842 24.86 20 68 32 3 37.4
13:00 1013 29.91 842 24.86 20.4 68.7 31 3.1 37.5
13:05 1013 29.91 842 24.86 19.8 67.7 32 3 37.5
13:10 1013 29.91 842 24.86 20.1 68.3 32 3.1 37.6
13:15 1013 29.91 842 24.86 20.2 68.3 31 2.8 37
13:20 1013 29.91 842 24.86 20.8 69.4 32 3.5 38.3
13:25 1013 29.91 842 24.86 20.7 69.3 31 3.2 37.8
13:30 1012 29.88 842 24.86 21 69.9 31 3.4 38.1
13:35 1012 29.88 842 24.86 20.6 69.2 32 3.7 38.6
13:40 1012 29.88 842 24.86 20.6 69.1 32 3.6 38.4
13:45 1012 29.88 842 24.86 20.6 69 35 4.7 40.4
13:50 1012 29.88 842 24.86 20 68 35 4.2 39.5
13:55 1012 29.88 841 24.83 20.1 68.2 32 3.2 37.7
14:00 1012 29.88 841 24.83 20 67.9 36 4.5 40.2
14:05 1012 29.88 841 24.83 19.1 66.4 35 3.6 38.4
14:10 1012 29.88 841 24.83 19 66.2 35 3.3 38
14:15 1012 29.88 841 24.83 19.5 67.2 33 2.8 37
14:20 1012 29.88 841 24.83 20.5 69 29 2.1 35.8
14:25 1012 29.88 841 24.83 21.4 70.4 29 2.6 36.6
14:30 1012 29.88 841 24.83 21.2 70.2 30 3.2 37.7
14:35 1012 29.88 841 24.83 21.3 70.4 29 2.7 36.8
14:40 1012 29.88 841 24.83 21.9 71.5 28 2.9 37.3
14:45 1012 29.88 841 24.83 22 71.6 28 2.9 37.2
14:50 1012 29.88 841 24.83 21.1 70 31 3.4 38
14:55 1012 29.88 841 24.83 20.9 69.7 28 2.1 35.8
15:00 1012 29.88 841 24.83 21.9 71.5 28 2.9 37.2
15:05 1012 29.88 841 24.83 22.2 72 28 3.1 37.6
15:10 1011 29.85 841 24.83 21.3 70.4 31 3.5 38.4
15:15 1011 29.85 841 24.83 20.4 68.6 32 3.1 37.5
15:20 1011 29.85 841 24.83 20.2 68.3 32 2.9 37.3
15:25 1011 29.85 841 24.83 20.6 69.1 30 2.6 36.7
15:30 1011 29.85 840 24.81 21 69.8 30 2.9 37.2
15:35 1011 29.85 840 24.81 20.8 69.4 30 2.9 37.3
15:40 1011 29.85 840 24.81 20.7 69.2 30 2.7 36.8
15:45 1011 29.85 840 24.81 20.5 68.9 30 2.6 36.7
15:50 1011 29.85 840 24.81 20.8 69.4 31 3 37.4
15:55 1011 29.85 840 24.81 20.4 68.7 32 3.1 37.6
16:00 1011 29.85 840 24.81 20.1 68.2 31 2.8 37
16:05 1011 29.85 840 24.81 20.2 68.3 30 2.4 36.4
16:10 1011 29.85 840 24.81 20.6 69.1 30 2.7 36.9
16:15 1011 29.85 840 24.81 20.6 69.1 31 3 37.5
16:20 1011 29.85 840 24.81 20.5 68.8 31 3 37.3
16:25 1011 29.85 840 24.81 20.3 68.5 30 2.5 36.6
16:30 1011 29.85 840 24.81 20.3 68.6 31 2.6 36.7
16:35 1011 29.85 840 24.81 20.2 68.3 31 2.5 36.6
16:40 1011 29.85 840 24.81 20.5 69 29 2.3 36.1
16:45 1011 29.85 840 24.81 20.8 69.4 30 2.7 36.9
16:50 1011 29.85 840 24.81 20.6 69.1 31 3.1 37.6
16:55 1011 29.85 840 24.81 20.5 68.9 30 2.5 36.6
17:00 1011 29.85 840 24.81 20.3 68.5 31 2.6 36.7
17:05 1011 29.85 840 24.81 20.2 68.3 30 2.4 36.3
17:10 1011 29.85 840 24.81 20.1 68.1 30 2.2 35.9
17:15 1011 29.85 840 24.81 19.9 67.8 31 2.5 36.5
17:20 1011 29.85 840 24.81 19.9 67.9 29 1.7 35
17:25 1011 29.85 840 24.81 19.8 67.7 30 2 35.6
17:30 1010 29.83 840 24.81 19.9 67.8 30 2.1 35.7
17:35 1010 29.83 839 24.78 20 67.9 30 2 35.6
17:40 1010 29.83 839 24.78 20.1 68.1 29 1.8 35.2
17:45 1010 29.83 839 24.78 20.1 68.2 30 2.3 36.2
17:50 1010 29.83 839 24.78 19.9 67.8 31 2.3 36.1
17:55 1010 29.83 839 24.78 19.8 67.6 31 2.2 36
18:00 1010 29.83 839 24.78 19.7 67.5 31 2.1 35.8
18:05 1010 29.83 839 24.78 19.6 67.3 31 2.3 36.1
18:10 1010 29.83 839 24.78 19.5 67.1 33 2.9 37.3
18:15 1010 29.83 839 24.78 19.4 66.9 31 2.2 35.9
18:20 1010 29.83 839 24.78 19.3 66.7 31 1.8 35.3
18:25 1010 29.83 839 24.78 19.3 66.7 32 2.2 35.9
18:30 1010 29.83 839 24.78 19.1 66.4 32 2.3 36.2
18:35 1010 29.83 839 24.78 18.9 66.1 34 2.9 37.2
18:40 1010 29.83 839 24.78 18.8 65.8 34 2.5 36.6
18:45 1010 29.83 839 24.78 18.6 65.5 35 3 37.3
18:50 1010 29.83 839 24.78 18.4 65.1 36 3 37.5
18:55 1010 29.83 839 24.78 18.3 65 35 2.5 36.6
19:00 1010 29.83 839 24.78 18.1 64.6 35 2.7 36.9
19:05 1010 29.83 839 24.78 17.9 64.1 36 2.7 36.9
19:10 1010 29.83 839 24.78 17.7 63.8 37 2.9 37.2
19:15 1010 29.83 839 24.78 17.5 63.5 39 3.4 38.1
19:20 1010 29.83 839 24.78 17.1 62.8 41 4 39.2
19:25 1010 29.83 839 24.78 16.9 62.5 42 4 39.2
19:30 1010 29.83 839 24.78 16.7 62 45 4.8 40.6
19:35 1010 29.83 839 24.78 16.1 61.1 44 4.1 39.3
19:40 1010 29.83 839 24.78 16 60.7 44 3.7 38.7
19:45 1010 29.83 839 24.78 16 60.7 43 3.7 38.6
19:50 1010 29.83 839 24.78 15.7 60.2 45 3.8 38.9
19:55 1010 29.83 839 24.78 15 59 46 3.6 38.6
20:00 1010 29.83 839 24.78 14.7 58.4 42 2 35.6
20:05 1010 29.83 839 24.78 15.2 59.4 39 1.6 34.9
20:10 1010 29.83 839 24.78 15.7 60.3 40 2.2 36
20:15 1010 29.83 839 24.78 15.9 60.5 40 2.4 36.3
20:20 1010 29.83 839 24.78 15.7 60.2 42 2.8 37
20:25 1010 29.83 839 24.78 15.3 59.6 43 2.8 37
20:30 1010 29.83 839 24.78 15.1 59.2 41 2 35.5
20:35 1010 29.83 839 24.78 15 58.9 45 3.3 37.9
20:40 1010 29.83 839 24.78 15 58.9 41 1.9 35.5
20:45 1010 29.83 839 24.78 14.7 58.5 42 2.2 35.9
20:50 1010 29.83 839 24.78 14.5 58.1 43 2 35.7
20:55 1010 29.83 839 24.78 14.8 58.6 40 1.4 34.6
21:00 1010 29.83 839 24.78 14.7 58.5 41 1.7 35
21:05 1010 29.83 839 24.78 14.6 58.3 41 1.7 35.1
21:10 1010 29.83 839 24.78 14.3 57.7 42 1.5 34.7
21:15 1010 29.83 839 24.78 14.2 57.6 41 1.3 34.3
21:20 1009 29.8 839 24.78 14.4 58 41 1.4 34.5
21:25 1009 29.8 839 24.78 14.4 58 41 1.6 34.8
21:30 1009 29.8 839 24.78 14.3 57.7 42 1.6 34.8
21:35 1009 29.8 839 24.78 14.1 57.4 42 1.5 34.7
21:40 1009 29.8 838 24.75 14.2 57.5 41 1.3 34.3
21:45 1009 29.8 838 24.75 14.5 58 40 1.2 34.2
21:50 1009 29.8 838 24.75 14.5 58.1 40 1.1 33.9
21:55 1009 29.8 838 24.75 14.6 58.4 40 1.4 34.5
22:00 1009 29.8 838 24.75 14.5 58 41 1.5 34.6
22:05 1009 29.8 838 24.75 14.2 57.6 42 1.7 35.1
22:10 1009 29.8 838 24.75 13.9 57.1 40 0.7 33.3
22:15 1009 29.8 838 24.75 14.3 57.8 40 0.8 33.5
22:20 1009 29.8 838 24.75 14.5 58.2 38 0.5 32.9
22:25 1009 29.8 838 24.75 14.9 58.7 37 0.4 32.8
22:30 1009 29.8 838 24.75 15 58.9 37 0.5 32.9
22:35 1009 29.8 838 24.75 15.1 59.2 36 0.2 32.4
22:40 1009 29.8 838 24.75 15.2 59.3 36 0.3 32.6
22:45 1009 29.8 838 24.75 15.2 59.3 36 0.4 32.7
22:50 1009 29.8 838 24.75 15.2 59.3 36 0.2 32.3
22:55 1009 29.8 838 24.75 15.2 59.4 36 0.3 32.5
23:00 1009 29.8 838 24.75 15.3 59.5 36 0.5 32.9
23:05 1009 29.8 838 24.75 15.2 59.4 36 0.5 32.9
23:10 1009 29.8 838 24.75 15.1 59.1 38 0.9 33.6
23:15 1009 29.8 838 24.75 15.1 59.2 37 0.5 32.8
23:20 1009 29.8 838 24.75 15.1 59.2 36 0.3 32.6
23:25 1009 29.8 838 24.75 15.2 59.4 37 0.7 33.2
23:30 1009 29.8 838 24.75 14.9 58.9 36 0.1 32.2
23:35 1009 29.8 838 24.75 15.4 59.6 36 0.3 32.5
23:40 1009 29.8 838 24.75 15.1 59.3 38 1.1 34.1
23:45 1009 29.8 838 24.75 14.4 57.9 42 1.8 35.3
23:50 1009 29.8 838 24.75 13.8 56.8 46 2.5 36.4
23:55 1009 29.8 838 24.75 13.2 55.8 40 -0.1 31.8
24:00 1009 29.8 838 24.75 14.1 57.5 38 0.2 32.3